createdAt,value
2022-12-16T00:02:13.170Z,101003.19
2022-12-16T00:07:16.453Z,101018.03
2022-12-16T00:12:19.428Z,101029.38
2022-12-16T00:17:23.909Z,101025.50
2022-12-16T00:22:26.952Z,101025.63
2022-12-16T00:27:29.965Z,101030.50
2022-12-16T00:32:34.451Z,101036.03
2022-12-16T00:37:37.584Z,101019.78
2022-12-16T00:42:40.600Z,101042.50
2022-12-16T00:47:45.044Z,101057.06
2022-12-16T00:52:48.689Z,101060.34
2022-12-16T00:57:51.735Z,101052.34
2022-12-16T01:02:56.506Z,101059.31
2022-12-16T01:07:59.689Z,101068.72
2022-12-16T01:13:02.966Z,101069.13
2022-12-16T01:18:07.648Z,101071.44
2022-12-16T01:23:10.925Z,101082.56
2022-12-16T01:28:14.251Z,101089.53
2022-12-16T01:33:18.709Z,101096.38
2022-12-16T01:38:21.830Z,101096.34
2022-12-16T01:43:28.204Z,101106.41
2022-12-16T01:48:43.189Z,101107.03
2022-12-16T01:53:47.492Z,101112.84
2022-12-16T01:58:52.436Z,101132.75
2022-12-16T02:04:02.316Z,101138.81
2022-12-16T02:09:08.906Z,101143.72
2022-12-16T02:14:32.677Z,101146.66
2022-12-16T02:20:10.129Z,101138.88
2022-12-16T02:25:48.183Z,101137.31
2022-12-16T02:31:14.212Z,101153.13
2022-12-16T02:36:26.665Z,101159.47
2022-12-16T02:41:38.897Z,101165.19
2022-12-16T02:46:45.659Z,101164.56
2022-12-16T02:51:50.508Z,101158.91
2022-12-16T02:57:07.427Z,101174.41
2022-12-16T03:02:16.017Z,101186.03
2022-12-16T03:07:22.225Z,101184.75
2022-12-16T03:12:25.942Z,101194.06
2022-12-16T03:17:30.573Z,101196.78
2022-12-16T03:22:37.990Z,101200.28
2022-12-16T03:27:46.168Z,101198.34
2022-12-16T03:32:59.004Z,101205.47
2022-12-16T03:38:06.828Z,101199.25
2022-12-16T03:43:14.225Z,101237.38
2022-12-16T03:48:20.606Z,101241.63
2022-12-16T03:53:26.470Z,101248.34
2022-12-16T03:58:29.613Z,101257.00
2022-12-16T04:03:34.295Z,101256.84
2022-12-16T04:08:37.718Z,101270.66
2022-12-16T04:13:58.243Z,101280.88
2022-12-16T04:19:20.583Z,101249.84
2022-12-16T04:24:31.287Z,101282.44
2022-12-16T04:29:54.888Z,101273.44
2022-12-16T04:35:13.071Z,101279.25
2022-12-16T04:40:33.655Z,101296.69
2022-12-16T04:45:57.076Z,101300.72
2022-12-16T04:51:19.137Z,101305.81
2022-12-16T04:56:39.429Z,101307.31
2022-12-16T05:02:02.184Z,101304.38
2022-12-16T05:07:24.595Z,101310.75
2022-12-16T05:12:45.130Z,101306.13
2022-12-16T05:18:05.678Z,101289.00
2022-12-16T05:23:27.239Z,101303.56
2022-12-16T05:28:47.791Z,101325.31
2022-12-16T05:34:08.356Z,101315.75
2022-12-16T05:39:30.483Z,101324.13
2022-12-16T05:44:50.170Z,101327.38
2022-12-16T05:50:10.459Z,101325.75
2022-12-16T05:55:34.246Z,101343.50
2022-12-16T06:01:00.736Z,101331.00
2022-12-16T06:06:21.429Z,101348.53
2022-12-16T06:11:43.271Z,101352.66
2022-12-16T06:17:03.571Z,101355.56
2022-12-16T06:22:24.070Z,101351.63
2022-12-16T06:27:45.526Z,101361.53
2022-12-16T06:33:14.804Z,101362.72
2022-12-16T06:38:35.451Z,101367.63
2022-12-16T06:43:57.369Z,101382.63
2022-12-16T06:49:23.161Z,101390.84
2022-12-16T06:54:43.483Z,101405.19
2022-12-16T07:00:05.142Z,101414.47
2022-12-16T07:05:45.318Z,101418.56
2022-12-16T07:11:15.994Z,101432.78
2022-12-16T07:16:38.100Z,101433.25
2022-12-16T07:21:58.381Z,101445.03
2022-12-16T07:27:18.953Z,101435.09
2022-12-16T07:32:46.464Z,101453.69
2022-12-16T07:38:07.185Z,101451.88
2022-12-16T07:43:27.781Z,101466.41
2022-12-16T07:48:50.042Z,101480.91
2022-12-16T07:54:11.271Z,101482.75
2022-12-16T07:59:31.945Z,101492.41
2022-12-16T08:05:01.358Z,101506.03
2022-12-16T08:10:22.498Z,101505.41
2022-12-16T08:15:43.092Z,101527.38
2022-12-16T08:21:04.964Z,101523.69
2022-12-16T08:26:25.638Z,101546.00
2022-12-16T08:31:57.740Z,101542.66
2022-12-16T08:37:20.303Z,101547.81
2022-12-16T08:42:40.577Z,101556.31
2022-12-16T08:48:01.189Z,101557.53
2022-12-16T08:53:23.323Z,101550.56
2022-12-16T08:58:43.894Z,101574.22
2022-12-16T09:04:04.640Z,101576.22
2022-12-16T09:09:26.737Z,101576.34
2022-12-16T09:14:47.634Z,101594.84
2022-12-16T09:20:04.571Z,101588.47
2022-12-16T09:25:27.316Z,101601.19
2022-12-16T09:31:02.952Z,101598.59
2022-12-16T09:36:24.201Z,101602.34
2022-12-16T09:42:00.486Z,101614.28
2022-12-16T09:47:27.012Z,101624.34
2022-12-16T09:52:51.818Z,101637.63
2022-12-16T09:58:13.912Z,101629.63
2022-12-16T10:03:40.618Z,101651.31
2022-12-16T10:09:08.731Z,101649.53
2022-12-16T10:14:37.678Z,101662.69
2022-12-16T10:20:10.399Z,101654.97
2022-12-16T10:25:36.056Z,101658.47
2022-12-16T10:30:57.884Z,101659.31
2022-12-16T10:36:22.042Z,101666.06
2022-12-16T10:41:48.300Z,101657.59
2022-12-16T10:47:10.174Z,101660.56
2022-12-16T10:52:32.370Z,101662.31
2022-12-16T10:58:01.657Z,101663.34
2022-12-16T11:03:40.750Z,101660.38
2022-12-16T11:09:01.653Z,101667.16
2022-12-16T11:14:34.264Z,101676.00
2022-12-16T11:19:56.123Z,101666.03
2022-12-16T11:25:25.364Z,101680.66
2022-12-16T11:30:45.989Z,101675.34
2022-12-16T11:36:11.946Z,101671.50
2022-12-16T11:41:46.875Z,101677.84
2022-12-16T11:47:08.423Z,101657.75
2022-12-16T11:52:37.972Z,101669.38
2022-12-16T11:58:06.101Z,101668.56
2022-12-16T12:03:31.417Z,101688.13
2022-12-16T12:09:02.801Z,101675.13
2022-12-16T12:14:44.793Z,101685.34
2022-12-16T12:20:16.478Z,101678.88
2022-12-16T12:25:42.992Z,101690.13
2022-12-16T12:31:11.389Z,101683.06
2022-12-16T12:36:40.763Z,101683.06
2022-12-16T12:42:27.085Z,101692.63
2022-12-16T12:47:51.478Z,101682.34
2022-12-16T12:53:32.903Z,101699.94
2022-12-16T12:58:57.523Z,101684.00
2022-12-16T13:04:25.719Z,101706.13
2022-12-16T13:09:50.619Z,101716.75
2022-12-16T13:15:22.607Z,101694.81
2022-12-16T13:20:56.439Z,101677.41
2022-12-16T13:26:33.418Z,101710.25
2022-12-16T13:32:35.692Z,101705.81
2022-12-16T13:37:55.984Z,101700.72
2022-12-16T13:43:21.952Z,101722.50
2022-12-16T13:48:50.541Z,101712.28
2022-12-16T13:54:12.761Z,101729.69
2022-12-16T13:59:38.218Z,101739.84
2022-12-16T14:05:11.148Z,101739.59
2022-12-16T14:10:46.372Z,101752.94
2022-12-16T14:16:20.400Z,101758.28
2022-12-16T14:21:51.343Z,101760.88
2022-12-16T14:27:12.113Z,101768.84
2022-12-16T14:32:45.274Z,101774.97
2022-12-16T14:38:07.235Z,101770.59
2022-12-16T14:43:32.416Z,101789.69
2022-12-16T14:48:55.127Z,101784.44
2022-12-16T14:54:35.955Z,101814.19
2022-12-16T14:59:56.540Z,101821.63
2022-12-16T15:05:17.873Z,101828.00
2022-12-16T15:10:42.899Z,101810.59
2022-12-16T15:16:07.227Z,101828.97
2022-12-16T15:21:27.956Z,101833.09
2022-12-16T15:26:52.749Z,101840.94
2022-12-16T15:32:13.126Z,101848.53
2022-12-16T15:37:43.332Z,101872.72
2022-12-16T15:43:10.211Z,101877.44
2022-12-16T15:48:38.495Z,101879.41
2022-12-16T15:53:59.197Z,101891.41
2022-12-16T15:59:43.958Z,101897.69
2022-12-16T16:05:05.836Z,101896.81
2022-12-16T16:10:48.735Z,101910.72
2022-12-16T16:16:13.144Z,101908.69
2022-12-16T16:21:33.521Z,101931.53
2022-12-16T16:26:54.349Z,101934.03
2022-12-16T16:32:16.220Z,101934.41
2022-12-16T16:37:39.546Z,101941.75
2022-12-16T16:42:59.858Z,101944.81
2022-12-16T16:48:32.038Z,101945.47
2022-12-16T16:53:52.662Z,101935.75
2022-12-16T16:59:18.507Z,101946.72
2022-12-16T17:04:41.100Z,101962.25
2022-12-16T17:10:01.926Z,101965.63
2022-12-16T17:15:38.605Z,101948.78
2022-12-16T17:21:03.723Z,101955.28
2022-12-16T17:26:24.132Z,101974.25
2022-12-16T17:31:44.746Z,101971.66
2022-12-16T17:37:07.030Z,101984.41
2022-12-16T17:42:27.852Z,101993.34
2022-12-16T17:47:48.779Z,101993.13
2022-12-16T17:53:13.356Z,102005.25
2022-12-16T17:58:33.967Z,102008.53
2022-12-16T18:03:54.746Z,102007.31
2022-12-16T18:09:17.050Z,102008.50
2022-12-16T18:14:37.766Z,102019.34
2022-12-16T18:19:58.127Z,102036.31
2022-12-16T18:25:20.368Z,102036.84
2022-12-16T18:30:41.301Z,102029.97
2022-12-16T18:36:01.606Z,102046.78
2022-12-16T18:41:25.022Z,102043.56
2022-12-16T18:46:47.555Z,102052.13
2022-12-16T18:52:08.027Z,102057.03
2022-12-16T18:57:33.911Z,102058.31
2022-12-16T19:02:57.231Z,102072.25
2022-12-16T19:08:20.176Z,102075.81
2022-12-16T19:13:42.202Z,102078.56
2022-12-16T19:19:05.398Z,102076.81
2022-12-16T19:24:26.680Z,102075.06
2022-12-16T19:29:48.519Z,102073.31
2022-12-16T19:35:08.893Z,102087.09
2022-12-16T19:40:30.119Z,102091.41
2022-12-16T19:45:56.462Z,102098.25
2022-12-16T19:51:17.966Z,102108.78
2022-12-16T19:56:38.621Z,102105.38
2022-12-16T20:02:00.757Z,102121.19
2022-12-16T20:07:23.318Z,102111.03
2022-12-16T20:12:46.695Z,102106.66
2022-12-16T20:18:10.700Z,102126.47
2022-12-16T20:23:31.227Z,102146.50
2022-12-16T20:29:04.968Z,102138.16
2022-12-16T20:34:27.462Z,102160.72
2022-12-16T20:39:56.510Z,102163.50
2022-12-16T20:45:19.280Z,102167.22
2022-12-16T20:50:43.714Z,102171.06
2022-12-16T20:56:04.566Z,102168.00
2022-12-16T21:01:25.460Z,102182.69
2022-12-16T21:06:47.774Z,102184.56
2022-12-16T21:12:07.993Z,102195.03
2022-12-16T21:17:29.381Z,102200.56
2022-12-16T21:22:56.558Z,102206.69
2022-12-16T21:28:18.128Z,102190.94
2022-12-16T21:33:39.407Z,102197.91
2022-12-16T21:39:01.686Z,102215.34
2022-12-16T21:44:22.236Z,102214.28
2022-12-16T21:49:42.783Z,102217.06
2022-12-16T21:55:05.550Z,102221.47
2022-12-16T22:00:27.203Z,102227.22
2022-12-16T22:05:49.384Z,102228.56
2022-12-16T22:11:11.257Z,102239.44
2022-12-16T22:16:31.681Z,102243.47
2022-12-16T22:21:51.992Z,102253.72
2022-12-16T22:27:14.071Z,102258.03
2022-12-16T22:32:34.768Z,102265.41
2022-12-16T22:37:56.057Z,102267.84
2022-12-16T22:43:18.433Z,102278.81
2022-12-16T22:48:41.842Z,102287.03
2022-12-16T22:54:02.612Z,102292.25
2022-12-16T22:59:25.032Z,102306.81
2022-12-16T23:04:48.839Z,102305.22
2022-12-16T23:10:09.334Z,102309.97
2022-12-16T23:15:31.952Z,102294.44
2022-12-16T23:20:56.504Z,102313.88
2022-12-16T23:26:23.079Z,102301.31
2022-12-16T23:31:44.857Z,102301.38
2022-12-16T23:37:07.162Z,102267.44
2022-12-16T23:42:27.627Z,102295.44
2022-12-16T23:47:49.416Z,102306.84
2022-12-16T23:53:10.020Z,102289.94
2022-12-16T23:58:30.325Z,102312.03
